Terminal Aerodrome Forecast
Issued by NWS Louisville, KY

Home | Current Version | Previous Version | Text Only | Print | Product List | Glossary On
Versions: 1 2 3 4 5 6 7 8 9 10 11 12 13 14
000
FTUS43 KLMK 071400 AAA
TAFSDF
TAF AMD
KSDF 071440Z 0715/0818 20009KT P6SM -SHRA VCTS BKN025CB
      TEMPO 0715/0717 VRB15G25KT 1SM -TSRA BKN015CB
     FM071700 23013G20KT P6SM VCSH BKN040
     FM072000 22014G20KT 6SM -SHRA VCTS BKN040CB BKN200
      TEMPO 0720/0724 3SM -TSRA BKN025CB
     FM080100 24006KT P6SM VCSH BKN040=

USA.gov is the U.S. government's official web portal to all federal, state and local government web resources and services.